createdAt,value
2023-05-02T00:00:59.064Z,6.50
2023-05-02T00:03:26.458Z,6.57
2023-05-02T00:05:53.738Z,7.13
2023-05-02T00:08:20.895Z,6.63
2023-05-02T00:10:48.101Z,6.60
2023-05-02T00:13:15.677Z,7.32
2023-05-02T00:15:42.839Z,6.70
2023-05-02T00:18:10.271Z,7.28
2023-05-02T00:20:37.541Z,7.13
2023-05-02T00:23:04.880Z,6.72
2023-05-02T00:25:32.038Z,5.95
2023-05-02T00:27:59.205Z,8.32
2023-05-02T00:30:26.766Z,6.05
2023-05-02T00:32:54.789Z,5.43
2023-05-02T00:35:21.967Z,6.30
2023-05-02T00:37:49.134Z,6.70
2023-05-02T00:40:16.296Z,8.82
2023-05-02T00:42:43.486Z,6.57
2023-05-02T00:45:10.743Z,5.63
2023-05-02T00:47:38.175Z,8.40
2023-05-02T00:50:05.859Z,6.90
2023-05-02T00:52:33.842Z,9.05
2023-05-02T00:55:03.360Z,5.97
2023-05-02T00:57:30.633Z,6.10
2023-05-02T00:59:58.229Z,9.32
2023-05-02T01:02:28.617Z,5.57
2023-05-02T01:05:07.863Z,6.53
2023-05-02T01:07:38.000Z,6.15
2023-05-02T01:10:08.016Z,5.30
2023-05-02T01:12:47.763Z,5.88
2023-05-02T01:15:19.973Z,9.38
2023-05-02T01:17:48.592Z,5.88
2023-05-02T01:20:18.449Z,7.75
2023-05-02T01:22:45.755Z,5.28
2023-05-02T01:25:12.922Z,5.63
2023-05-02T01:27:43.153Z,5.45
2023-05-02T01:30:12.445Z,5.55
2023-05-02T01:32:41.025Z,4.65
2023-05-02T01:35:09.912Z,5.20
2023-05-02T01:37:38.898Z,6.05
2023-05-02T01:40:07.654Z,5.53
2023-05-02T01:42:37.170Z,5.75
2023-05-02T01:45:06.234Z,6.40
2023-05-02T01:47:34.517Z,5.35
2023-05-02T01:50:02.777Z,5.65
2023-05-02T01:52:30.446Z,6.85
2023-05-02T01:54:58.644Z,5.70
2023-05-02T01:57:26.459Z,5.32
2023-05-02T01:59:56.098Z,4.72
2023-05-02T02:02:25.244Z,4.43
2023-05-02T02:04:53.121Z,4.75
2023-05-02T02:07:20.594Z,4.82
2023-05-02T02:09:47.840Z,5.18
2023-05-02T02:12:18.329Z,5.45
2023-05-02T02:14:49.023Z,5.97
2023-05-02T02:17:22.949Z,4.80
2023-05-02T02:19:51.691Z,4.57
2023-05-02T02:22:19.549Z,6.40
2023-05-02T02:24:47.622Z,5.63
2023-05-02T02:27:15.085Z,4.50
2023-05-02T02:29:42.261Z,4.70
2023-05-02T02:32:09.469Z,4.25
2023-05-02T02:34:36.734Z,4.93
2023-05-02T02:37:13.748Z,4.63
2023-05-02T02:40:05.077Z,6.03
2023-05-02T02:42:41.013Z,4.78
2023-05-02T02:45:26.911Z,6.72
2023-05-02T02:48:18.199Z,4.85
2023-05-02T02:51:09.160Z,6.07
2023-05-02T02:53:39.332Z,4.88
2023-05-02T02:56:07.498Z,4.65
2023-05-02T02:58:40.326Z,4.75
2023-05-02T03:01:10.753Z,6.05
2023-05-02T03:03:40.799Z,4.43
2023-05-02T03:06:08.061Z,4.75
2023-05-02T03:08:41.920Z,4.63
2023-05-02T03:11:09.601Z,4.50
2023-05-02T03:13:37.117Z,4.38
2023-05-02T03:16:19.158Z,5.38
2023-05-02T03:18:46.478Z,4.05
2023-05-02T03:21:13.646Z,4.40
2023-05-02T03:23:40.785Z,3.78
2023-05-02T03:26:07.962Z,4.50
2023-05-02T03:28:35.112Z,4.15
2023-05-02T03:31:02.637Z,3.67
2023-05-02T03:33:29.919Z,3.95
2023-05-02T03:35:57.057Z,4.72
2023-05-02T03:38:24.218Z,4.47
2023-05-02T03:40:51.356Z,5.32
2023-05-02T03:43:18.484Z,4.45
2023-05-02T03:45:47.587Z,5.47
2023-05-02T03:48:15.894Z,4.50
2023-05-02T03:50:43.672Z,4.75
2023-05-02T03:53:10.822Z,5.05
2023-05-02T03:55:41.197Z,3.85
2023-05-02T03:58:08.592Z,4.32
2023-05-02T04:00:35.940Z,3.50
2023-05-02T04:03:03.763Z,3.50
2023-05-02T04:05:31.021Z,4.07
2023-05-02T04:07:58.431Z,4.90
2023-05-02T04:10:25.756Z,3.97
2023-05-02T04:12:52.953Z,5.10
2023-05-02T04:15:20.230Z,4.38
2023-05-02T04:17:47.567Z,4.28
2023-05-02T04:20:15.747Z,4.45
2023-05-02T04:22:42.933Z,3.88
2023-05-02T04:25:10.198Z,4.35
2023-05-02T04:27:38.509Z,3.95
2023-05-02T04:30:06.154Z,3.92
2023-05-02T04:32:34.071Z,4.00
2023-05-02T04:35:01.582Z,3.80
2023-05-02T04:37:28.774Z,4.60
2023-05-02T04:39:55.911Z,4.15
2023-05-02T04:42:23.160Z,4.68
2023-05-02T04:44:50.672Z,4.15
2023-05-02T04:47:17.855Z,6.32
2023-05-02T04:49:45.030Z,4.57
2023-05-02T04:52:12.348Z,4.60
2023-05-02T04:54:39.524Z,4.72
2023-05-02T04:57:08.001Z,3.92
2023-05-02T04:59:35.239Z,6.20
2023-05-02T05:02:03.007Z,6.22
2023-05-02T05:04:30.266Z,4.00
2023-05-02T05:06:57.536Z,4.50
2023-05-02T05:09:24.735Z,5.20
2023-05-02T05:11:51.900Z,4.30
2023-05-02T05:14:19.245Z,6.70
2023-05-02T05:16:46.536Z,6.88
2023-05-02T05:19:13.828Z,5.85
2023-05-02T05:21:41.092Z,8.23
2023-05-02T05:24:08.990Z,8.13
2023-05-02T05:26:36.148Z,9.38
2023-05-02T05:29:03.493Z,8.15
2023-05-02T05:31:31.013Z,4.38
2023-05-02T05:33:58.415Z,4.20
2023-05-02T05:36:26.444Z,9.18
2023-05-02T05:38:53.673Z,6.05
2023-05-02T05:41:21.173Z,6.97
2023-05-02T05:43:48.314Z,10.63
2023-05-02T05:46:15.633Z,6.55
2023-05-02T05:48:42.851Z,6.22
2023-05-02T05:51:10.030Z,10.60
2023-05-02T05:53:37.387Z,7.15
2023-05-02T05:56:11.635Z,6.15
2023-05-02T05:58:39.131Z,7.75
2023-05-02T06:01:06.736Z,12.25
2023-05-02T06:03:34.117Z,8.32
2023-05-02T06:06:01.528Z,8.30
2023-05-02T06:08:28.747Z,7.45
2023-05-02T06:10:55.917Z,7.15
2023-05-02T06:13:23.099Z,10.77
2023-05-02T06:15:50.274Z,9.85
2023-05-02T06:18:17.554Z,12.48
2023-05-02T06:20:44.756Z,7.78
2023-05-02T06:23:12.031Z,5.18
2023-05-02T06:25:39.536Z,9.48
2023-05-02T06:28:07.397Z,5.32
2023-05-02T06:30:34.613Z,8.43
2023-05-02T06:33:03.529Z,5.45
2023-05-02T06:35:30.746Z,5.38
2023-05-02T06:37:57.971Z,5.25
2023-05-02T06:40:25.169Z,5.43
2023-05-02T06:42:52.360Z,5.78
2023-05-02T06:45:19.557Z,7.70
2023-05-02T06:47:46.810Z,6.03
2023-05-02T06:50:14.065Z,6.00
2023-05-02T06:52:41.383Z,6.13
2023-05-02T06:55:08.808Z,5.32
2023-05-02T06:57:35.980Z,5.13
2023-05-02T07:00:04.348Z,4.38
2023-05-02T07:02:31.702Z,5.68
2023-05-02T07:04:58.861Z,7.18
2023-05-02T07:07:26.020Z,4.78
2023-05-02T07:09:53.157Z,5.70
2023-05-02T07:12:20.886Z,6.30
2023-05-02T07:14:48.096Z,6.05
2023-05-02T07:17:15.836Z,6.00
2023-05-02T07:19:58.364Z,4.32
2023-05-02T07:22:26.159Z,7.90
2023-05-02T07:25:00.143Z,7.47
2023-05-02T07:27:27.416Z,5.35
2023-05-02T07:29:54.718Z,12.57
2023-05-02T07:32:22.718Z,8.68
2023-05-02T07:34:50.161Z,7.60
2023-05-02T07:37:17.317Z,6.97
2023-05-02T07:39:44.540Z,6.82
2023-05-02T07:42:11.670Z,8.18
2023-05-02T07:44:38.879Z,7.43
2023-05-02T07:47:06.387Z,5.70
2023-05-02T07:49:33.560Z,5.03
2023-05-02T07:52:00.807Z,6.38
2023-05-02T07:54:28.046Z,4.65
2023-05-02T07:56:57.619Z,7.45
2023-05-02T07:59:24.796Z,5.72
2023-05-02T08:01:51.917Z,5.75
2023-05-02T08:04:19.381Z,6.43
2023-05-02T08:06:46.879Z,5.78
2023-05-02T08:09:14.097Z,5.40
2023-05-02T08:11:41.208Z,5.88
2023-05-02T08:14:08.403Z,5.68
2023-05-02T08:16:35.725Z,5.40
2023-05-02T08:19:02.946Z,7.38
2023-05-02T08:21:32.174Z,4.85
2023-05-02T08:23:59.739Z,6.20
2023-05-02T08:26:27.192Z,4.75
2023-05-02T08:28:54.953Z,5.90
2023-05-02T08:31:22.445Z,5.63
2023-05-02T08:33:49.729Z,4.88
2023-05-02T08:36:18.108Z,4.45
2023-05-02T08:38:46.539Z,4.55
2023-05-02T08:41:20.498Z,7.25
2023-05-02T08:43:47.770Z,4.70
2023-05-02T08:46:16.000Z,4.82
2023-05-02T08:48:44.461Z,5.10
2023-05-02T08:51:12.645Z,4.72
2023-05-02T08:53:40.615Z,7.07
2023-05-02T08:56:08.385Z,5.45
2023-05-02T08:58:39.296Z,4.70
2023-05-02T09:01:16.621Z,4.75
2023-05-02T09:03:45.065Z,5.57
2023-05-02T09:06:14.184Z,5.60
2023-05-02T09:08:42.205Z,5.65
2023-05-02T09:11:10.040Z,5.13
2023-05-02T09:13:42.083Z,6.90
2023-05-02T09:16:10.475Z,4.18
2023-05-02T09:18:57.729Z,5.82
2023-05-02T09:21:26.132Z,5.43
2023-05-02T09:23:53.331Z,6.88
2023-05-02T09:26:21.881Z,4.28
2023-05-02T09:28:50.036Z,5.20
2023-05-02T09:31:26.834Z,4.78
2023-05-02T09:34:08.630Z,5.43
2023-05-02T09:36:40.503Z,5.47
2023-05-02T09:39:11.962Z,4.70
2023-05-02T09:41:42.907Z,6.10
2023-05-02T09:44:14.484Z,4.20
2023-05-02T09:46:42.852Z,6.03
2023-05-02T09:49:10.497Z,4.00
2023-05-02T09:51:37.848Z,3.65
2023-05-02T09:54:05.046Z,5.28
2023-05-02T09:56:32.367Z,4.50
2023-05-02T09:59:15.683Z,5.63
2023-05-02T10:01:43.237Z,5.68
2023-05-02T10:04:17.003Z,4.60
2023-05-02T10:06:48.359Z,4.97
2023-05-02T10:09:19.634Z,5.45
2023-05-02T10:11:51.830Z,4.15
2023-05-02T10:14:20.316Z,5.25
2023-05-02T10:16:56.653Z,4.10
2023-05-02T10:19:30.506Z,4.10
2023-05-02T10:21:58.418Z,4.35
2023-05-02T10:24:26.654Z,4.97
2023-05-02T10:26:54.304Z,4.80
2023-05-02T10:29:21.578Z,4.47
2023-05-02T10:31:50.488Z,4.72
2023-05-02T10:34:19.186Z,5.10
2023-05-02T10:36:46.679Z,4.93
2023-05-02T10:39:13.993Z,5.32
2023-05-02T10:41:41.927Z,6.20
2023-05-02T10:44:09.151Z,7.63
2023-05-02T10:46:37.749Z,3.95
2023-05-02T10:49:05.147Z,6.13
2023-05-02T10:51:33.144Z,5.22
2023-05-02T10:54:18.690Z,7.68
2023-05-02T10:57:04.378Z,4.50
2023-05-02T10:59:34.369Z,4.85
2023-05-02T11:02:01.860Z,4.88
2023-05-02T11:04:47.917Z,4.90
2023-05-02T11:07:15.030Z,4.63
2023-05-02T11:09:42.318Z,9.07
2023-05-02T11:12:09.533Z,9.93
2023-05-02T11:14:40.071Z,6.93
2023-05-02T11:17:08.348Z,8.07
2023-05-02T11:19:38.276Z,5.85
2023-05-02T11:22:27.046Z,8.73
2023-05-02T11:24:54.683Z,4.70
2023-05-02T11:27:35.682Z,6.97
2023-05-02T11:30:09.870Z,7.35
2023-05-02T11:32:50.219Z,6.38
2023-05-02T11:35:17.641Z,5.75
2023-05-02T11:37:44.872Z,7.05
2023-05-02T11:40:15.303Z,6.63
2023-05-02T11:42:42.472Z,12.27
2023-05-02T11:45:10.122Z,8.38
2023-05-02T11:47:37.527Z,6.85
2023-05-02T11:50:05.792Z,5.68
2023-05-02T11:52:38.466Z,5.75
2023-05-02T11:55:07.862Z,7.43
2023-05-02T11:57:35.991Z,5.30
2023-05-02T12:00:03.994Z,7.28
2023-05-02T12:02:37.720Z,4.15
2023-05-02T12:05:06.192Z,5.63
2023-05-02T12:07:40.134Z,6.07
2023-05-02T12:10:07.904Z,6.20
2023-05-02T12:12:35.551Z,6.13
2023-05-02T12:15:06.462Z,4.35
2023-05-02T12:17:34.445Z,6.55
2023-05-02T12:20:01.835Z,6.72
2023-05-02T12:22:29.398Z,5.32
2023-05-02T12:24:56.649Z,9.68
2023-05-02T12:27:24.181Z,10.13
2023-05-02T12:29:51.859Z,15.00
2023-05-02T12:32:29.203Z,29.38
2023-05-02T12:34:56.676Z,36.70
2023-05-02T12:37:24.691Z,26.10
2023-05-02T12:39:53.417Z,23.95
2023-05-02T12:42:21.940Z,25.42
2023-05-02T12:44:52.173Z,23.58
2023-05-02T12:47:20.992Z,20.05
2023-05-02T12:49:59.582Z,24.50
2023-05-02T12:52:45.634Z,18.25
2023-05-02T12:55:16.717Z,18.35
2023-05-02T12:57:44.292Z,21.17
2023-05-02T13:00:11.843Z,19.25
2023-05-02T13:02:39.111Z,16.67
2023-05-02T13:05:16.277Z,15.38
2023-05-02T13:07:43.502Z,18.02
2023-05-02T13:10:15.103Z,16.75
2023-05-02T13:12:43.749Z,16.77
2023-05-02T13:15:11.878Z,14.75
2023-05-02T13:17:39.323Z,13.45
2023-05-02T13:20:07.512Z,12.88
2023-05-02T13:22:34.934Z,14.88
2023-05-02T13:25:02.276Z,16.00
2023-05-02T13:27:29.556Z,13.25
2023-05-02T13:29:56.891Z,12.15
2023-05-02T13:32:24.041Z,12.35
2023-05-02T13:34:51.517Z,9.40
2023-05-02T13:37:18.876Z,12.07
2023-05-02T13:39:46.082Z,12.27
2023-05-02T13:42:13.279Z,10.35
2023-05-02T13:44:40.428Z,11.13
2023-05-02T13:47:07.601Z,11.93
2023-05-02T13:49:34.769Z,13.90
2023-05-02T13:52:01.919Z,12.85
2023-05-02T13:54:29.060Z,10.38
2023-05-02T13:56:56.266Z,9.93
2023-05-02T13:59:23.461Z,10.68
2023-05-02T14:01:50.831Z,12.82
2023-05-02T14:04:18.060Z,10.25
2023-05-02T14:06:45.398Z,10.20
2023-05-02T14:09:12.809Z,13.85
2023-05-02T14:11:39.974Z,11.25
2023-05-02T14:14:07.269Z,8.50
2023-05-02T14:16:35.255Z,9.98
2023-05-02T14:19:02.536Z,13.18
2023-05-02T14:21:29.689Z,12.80
2023-05-02T14:23:56.863Z,11.25
2023-05-02T14:26:24.113Z,10.50
2023-05-02T14:28:51.269Z,8.45
2023-05-02T14:31:18.583Z,9.52
2023-05-02T14:33:46.119Z,8.13
2023-05-02T14:36:13.268Z,9.18
2023-05-02T14:38:40.680Z,13.25
2023-05-02T14:41:07.910Z,12.00
2023-05-02T14:43:35.171Z,11.63
2023-05-02T14:46:02.736Z,12.15
2023-05-02T14:48:29.991Z,18.13
2023-05-02T14:50:58.918Z,9.98
2023-05-02T14:53:26.385Z,11.55
2023-05-02T14:55:55.527Z,11.73
2023-05-02T14:58:22.746Z,10.02
2023-05-02T15:00:49.937Z,11.13
2023-05-02T15:03:17.213Z,11.93
2023-05-02T15:05:44.530Z,11.48
2023-05-02T15:08:11.736Z,11.77
2023-05-02T15:10:39.412Z,13.82
2023-05-02T15:13:07.552Z,12.73
2023-05-02T15:15:34.898Z,8.32
2023-05-02T15:18:02.097Z,14.82
2023-05-02T15:20:29.328Z,13.35
2023-05-02T15:22:58.716Z,7.85
2023-05-02T15:25:25.973Z,11.57
2023-05-02T15:27:53.179Z,16.70
2023-05-02T15:30:22.584Z,11.02
2023-05-02T15:32:50.797Z,12.13
2023-05-02T15:35:19.394Z,10.57
2023-05-02T15:37:46.614Z,11.68
2023-05-02T15:40:14.692Z,11.73
2023-05-02T15:42:42.001Z,9.15
2023-05-02T15:45:13.393Z,12.48
2023-05-02T15:47:40.928Z,11.80
2023-05-02T15:50:10.687Z,13.07
2023-05-02T15:52:37.887Z,18.40
2023-05-02T15:55:05.687Z,16.55
2023-05-02T15:57:32.860Z,14.13
2023-05-02T16:00:00.206Z,9.68
2023-05-02T16:02:27.564Z,10.65
2023-05-02T16:04:54.946Z,10.20
2023-05-02T16:07:22.097Z,10.95
2023-05-02T16:09:49.314Z,9.93
2023-05-02T16:12:16.489Z,8.93
2023-05-02T16:14:43.694Z,11.32
2023-05-02T16:17:10.882Z,16.17
2023-05-02T16:19:38.083Z,14.50
2023-05-02T16:22:06.417Z,10.52
2023-05-02T16:24:33.641Z,11.93
2023-05-02T16:27:01.827Z,10.57
2023-05-02T16:29:29.057Z,12.68
2023-05-02T16:31:56.439Z,10.07
2023-05-02T16:34:23.666Z,9.20
2023-05-02T16:36:51.483Z,12.82
2023-05-02T16:39:18.773Z,13.13
2023-05-02T16:41:46.361Z,11.32
2023-05-02T16:44:13.516Z,12.63
2023-05-02T16:46:41.504Z,7.68
2023-05-02T16:49:08.672Z,7.75
2023-05-02T16:51:35.873Z,10.65
2023-05-02T16:54:03.050Z,9.77
2023-05-02T16:56:30.207Z,8.82
2023-05-02T16:58:57.401Z,11.20
2023-05-02T17:01:24.689Z,9.65
2023-05-02T17:03:51.866Z,11.75
2023-05-02T17:06:19.010Z,11.27
2023-05-02T17:08:46.238Z,9.70
2023-05-02T17:11:13.519Z,7.38
2023-05-02T17:13:40.762Z,9.77
2023-05-02T17:16:08.306Z,7.70
2023-05-02T17:18:35.673Z,9.85
2023-05-02T17:21:04.021Z,12.30
2023-05-02T17:23:31.630Z,8.55
2023-05-02T17:25:59.360Z,12.57
2023-05-02T17:28:26.826Z,9.88
2023-05-02T17:30:55.762Z,10.90
2023-05-02T17:33:23.233Z,13.68
2023-05-02T17:35:50.399Z,14.32
2023-05-02T17:38:17.613Z,13.32
2023-05-02T17:40:44.756Z,12.77
2023-05-02T17:43:12.233Z,9.75
2023-05-02T17:45:41.450Z,9.90
2023-05-02T17:48:08.693Z,10.70
2023-05-02T17:50:39.006Z,11.65
2023-05-02T17:53:06.642Z,9.30
2023-05-02T17:55:36.819Z,13.10
2023-05-02T17:58:06.035Z,12.38
2023-05-02T18:00:33.589Z,12.23
2023-05-02T18:03:00.832Z,15.45
2023-05-02T18:05:28.198Z,12.25
2023-05-02T18:07:55.982Z,16.15
2023-05-02T18:10:23.131Z,10.85
2023-05-02T18:12:50.507Z,11.00
2023-05-02T18:15:17.727Z,14.98
2023-05-02T18:17:44.938Z,12.20
2023-05-02T18:20:12.575Z,13.18
2023-05-02T18:22:39.988Z,13.65
2023-05-02T18:25:07.712Z,10.48
2023-05-02T18:27:35.298Z,10.07
2023-05-02T18:30:02.469Z,9.70
2023-05-02T18:32:31.597Z,11.52
2023-05-02T18:34:58.895Z,14.23
2023-05-02T18:37:31.623Z,8.68
2023-05-02T18:39:59.394Z,11.88
2023-05-02T18:42:26.637Z,8.20
2023-05-02T18:44:53.955Z,9.75
2023-05-02T18:47:21.505Z,7.45
2023-05-02T18:49:50.199Z,10.20
2023-05-02T18:52:17.377Z,10.05
2023-05-02T18:54:44.553Z,10.45
2023-05-02T18:57:12.664Z,9.82
2023-05-02T18:59:39.895Z,8.55
2023-05-02T19:02:07.504Z,6.93
2023-05-02T19:04:34.675Z,10.13
2023-05-02T19:07:01.818Z,9.60
2023-05-02T19:09:29.002Z,10.20
2023-05-02T19:11:56.285Z,17.27
2023-05-02T19:14:23.519Z,13.45
2023-05-02T19:16:50.933Z,12.32
2023-05-02T19:19:18.506Z,10.23
2023-05-02T19:21:46.952Z,8.32
2023-05-02T19:24:14.335Z,12.75
2023-05-02T19:26:41.749Z,10.85
2023-05-02T19:29:09.087Z,8.77
2023-05-02T19:31:36.912Z,10.75
2023-05-02T19:34:04.079Z,9.07
2023-05-02T19:36:32.039Z,8.80
2023-05-02T19:38:59.271Z,9.43
2023-05-02T19:41:26.526Z,9.20
2023-05-02T19:43:55.629Z,9.32
2023-05-02T19:46:22.949Z,7.95
2023-05-02T19:48:50.099Z,10.07
2023-05-02T19:51:17.355Z,8.07
2023-05-02T19:53:44.558Z,10.70
2023-05-02T19:56:11.806Z,7.20
2023-05-02T19:58:39.021Z,5.75
2023-05-02T20:01:06.415Z,9.77
2023-05-02T20:03:34.971Z,7.65
2023-05-02T20:06:02.501Z,9.23
2023-05-02T20:08:31.421Z,8.52
2023-05-02T20:10:58.652Z,9.70
2023-05-02T20:13:25.848Z,8.40
2023-05-02T20:15:53.760Z,10.52
2023-05-02T20:18:21.281Z,13.35
2023-05-02T20:20:48.500Z,9.30
2023-05-02T20:23:16.247Z,11.15
2023-05-02T20:25:43.929Z,8.68
2023-05-02T20:28:11.225Z,11.45
2023-05-02T20:30:42.057Z,10.27
2023-05-02T20:33:15.505Z,11.55
2023-05-02T20:35:43.716Z,12.40
2023-05-02T20:38:11.154Z,8.38
2023-05-02T20:40:39.844Z,11.95
2023-05-02T20:43:07.416Z,10.80
2023-05-02T20:45:34.676Z,7.85
2023-05-02T20:48:01.933Z,11.68
2023-05-02T20:50:29.268Z,12.40
2023-05-02T20:52:56.601Z,9.77
2023-05-02T20:55:23.840Z,8.65
2023-05-02T20:57:52.958Z,9.73
2023-05-02T21:00:22.720Z,8.13
2023-05-02T21:02:50.105Z,6.90
2023-05-02T21:05:17.474Z,8.25
2023-05-02T21:07:45.050Z,12.38
2023-05-02T21:10:12.395Z,9.55
2023-05-02T21:12:39.820Z,9.98
2023-05-02T21:15:07.782Z,10.65
2023-05-02T21:17:35.051Z,9.20
2023-05-02T21:20:02.747Z,7.93
2023-05-02T21:22:30.268Z,8.32
2023-05-02T21:24:57.444Z,13.18
2023-05-02T21:27:24.744Z,8.07
2023-05-02T21:29:52.040Z,7.13
2023-05-02T21:32:19.436Z,7.68
2023-05-02T21:34:46.636Z,6.90
2023-05-02T21:37:13.825Z,10.02
2023-05-02T21:39:41.200Z,7.57
2023-05-02T21:42:08.368Z,12.07
2023-05-02T21:44:35.740Z,10.80
2023-05-02T21:47:02.948Z,10.48
2023-05-02T21:49:31.158Z,11.38
2023-05-02T21:51:58.796Z,9.65
2023-05-02T21:54:26.287Z,10.05
2023-05-02T21:56:56.343Z,8.68
2023-05-02T21:59:23.532Z,12.88
2023-05-02T22:01:50.775Z,20.75
2023-05-02T22:04:18.369Z,14.35
2023-05-02T22:06:52.189Z,15.50
2023-05-02T22:09:20.657Z,13.52
2023-05-02T22:11:47.806Z,13.75
2023-05-02T22:14:15.000Z,13.27
2023-05-02T22:16:42.187Z,9.18
2023-05-02T22:19:11.508Z,14.30
2023-05-02T22:21:38.654Z,8.73
2023-05-02T22:24:06.185Z,9.85
2023-05-02T22:26:33.399Z,10.35
2023-05-02T22:29:00.662Z,12.15
2023-05-02T22:31:27.852Z,10.85
2023-05-02T22:33:55.196Z,12.88
2023-05-02T22:36:22.363Z,8.38
2023-05-02T22:38:49.638Z,10.15
2023-05-02T22:41:16.781Z,12.18
2023-05-02T22:43:43.959Z,11.05
2023-05-02T22:46:11.282Z,8.68
2023-05-02T22:48:38.510Z,7.97
2023-05-02T22:51:05.953Z,7.32
2023-05-02T22:53:33.285Z,6.93
2023-05-02T22:56:00.575Z,7.57
2023-05-02T22:58:27.775Z,10.73
2023-05-02T23:00:54.989Z,7.60
2023-05-02T23:03:22.479Z,10.60
2023-05-02T23:05:49.955Z,5.90
2023-05-02T23:08:17.185Z,7.53
2023-05-02T23:10:44.543Z,8.60
2023-05-02T23:13:11.834Z,9.43
2023-05-02T23:15:40.116Z,9.70
2023-05-02T23:18:07.403Z,7.25
2023-05-02T23:20:34.809Z,8.48
2023-05-02T23:23:01.967Z,7.20
2023-05-02T23:25:29.141Z,10.07
2023-05-02T23:27:56.384Z,9.25
2023-05-02T23:30:23.612Z,6.95
2023-05-02T23:32:51.615Z,6.22
2023-05-02T23:35:19.032Z,9.00
2023-05-02T23:37:46.248Z,9.25
2023-05-02T23:40:13.708Z,8.00
2023-05-02T23:42:40.956Z,6.78
2023-05-02T23:45:11.829Z,9.73
2023-05-02T23:47:39.061Z,6.63
2023-05-02T23:50:06.457Z,5.82
2023-05-02T23:52:33.824Z,6.25
2023-05-02T23:55:01.079Z,7.25
2023-05-02T23:57:30.072Z,6.28
2023-05-02T23:59:57.303Z,7.15
